Time;durP1;ratioP1;P1;durP2;ratioP2;P2;SDS_P1;SDS_P2;PMS_P1;PMS_P2;Temp;Humidity;BMP_temperature;BMP_pressure;BME280_temperature;BME280_humidity;BME280_pressure;Samples;Min_cycle;Max_cycle;Signal;HPM_P1;HPM_P2
2021/12/10 00:01:33;;;;;;;6.17;4.13;;;;;;;1.51;100.00;101154.03;6364594;28;20218;-74
2021/12/10 00:04:41;;;;;;;4.53;4.17;;;;;;;1.48;100.00;101149.81;6363451;28;20372;-74
2021/12/10 00:07:47;;;;;;;3.90;3.70;;;;;;;1.49;100.00;101145.28;6364781;28;20190;-74
2021/12/10 00:10:55;;;;;;;6.03;4.50;;;;;;;1.55;100.00;101144.66;6362489;28;20392;-74
2021/12/10 00:14:00;;;;;;;4.83;4.40;;;;;;;1.51;100.00;101137.91;6363985;28;20186;-74
2021/12/10 00:17:07;;;;;;;5.10;4.30;;;;;;;1.62;100.00;101129.59;6364581;28;20251;-75
2021/12/10 00:20:16;;;;;;;4.57;4.07;;;;;;;1.58;100.00;101129.09;6364131;28;20184;-74
2021/12/10 00:23:21;;;;;;;7.13;4.83;;;;;;;1.57;100.00;101126.53;6346226;28;20218;-74
2021/12/10 00:26:27;;;;;;;5.23;4.60;;;;;;;1.61;100.00;101125.25;6364069;28;20185;-74
2021/12/10 00:29:31;;;;;;;5.40;3.93;;;;;;;1.67;100.00;101127.34;6364204;28;20228;-74
2021/12/10 00:32:39;;;;;;;6.53;4.67;;;;;;;1.64;100.00;101133.00;6363958;28;20270;-75
2021/12/10 00:35:46;;;;;;;4.93;4.53;;;;;;;1.63;100.00;101128.63;6363695;28;20187;-75
2021/12/10 00:38:51;;;;;;;4.53;4.20;;;;;;;1.67;100.00;101132.72;6363684;28;20193;-74
2021/12/10 00:41:58;;;;;;;6.00;4.30;;;;;;;1.62;100.00;101129.59;6363940;28;20210;-74
2021/12/10 00:45:06;;;;;;;4.80;4.40;;;;;;;1.59;100.00;101119.19;6363669;28;20182;-75
2021/12/10 00:48:12;;;;;;;4.83;4.53;;;;;;;1.59;100.00;101113.81;6363870;28;20192;-75
2021/12/10 00:51:19;;;;;;;4.93;4.63;;;;;;;1.60;100.00;101115.47;6356359;28;20202;-75
2021/12/10 00:54:23;;;;;;;5.60;4.67;;;;;;;1.66;100.00;101125.63;6336801;28;20469;-75
2021/12/10 00:57:29;;;;;;;5.97;4.77;;;;;;;1.61;100.00;101133.31;6337017;28;20391;-75
2021/12/10 01:00:36;;;;;;;5.03;4.63;;;;;;;1.63;100.00;101125.94;6336886;28;20189;-75
2021/12/10 01:03:45;;;;;;;4.60;4.20;;;;;;;1.68;100.00;101119.09;6336813;28;20597;-75
2021/12/10 01:06:53;;;;;;;4.87;4.23;;;;;;;1.73;100.00;101121.31;6337201;28;20215;-75
2021/12/10 01:10:00;;;;;;;5.20;3.90;;;;;;;1.77;100.00;101117.34;6338194;28;20183;-75
2021/12/10 01:13:11;;;;;;;4.80;4.27;;;;;;;1.70;100.00;101113.56;6338163;28;20276;-75
2021/12/10 01:26:54;;;;;;;4.73;3.83;;;;;;;1.68;100.00;101107.50;6337446;28;20186;-75
2021/12/10 01:30:01;;;;;;;4.20;3.93;;;;;;;1.62;100.00;101094.63;6336296;28;20548;-75
2021/12/10 01:33:11;;;;;;;3.70;3.60;;;;;;;1.58;100.00;101090.59;6337703;28;20191;-75
2021/12/10 01:36:16;;;;;;;3.70;3.60;;;;;;;1.60;100.00;101088.56;6336265;28;20190;-75
2021/12/10 01:39:26;;;;;;;7.03;3.77;;;;;;;1.59;100.00;101086.91;6336293;28;20246;-75
2021/12/10 01:42:39;;;;;;;3.93;3.73;;;;;;;1.49;100.00;101086.97;6336123;28;20421;-75
2021/12/10 01:45:47;;;;;;;3.93;3.73;;;;;;;1.64;100.00;101087.28;6336137;28;20400;-75
2021/12/10 01:48:55;;;;;;;4.53;4.13;;;;;;;1.61;100.00;101074.16;6337004;28;20188;-76
2021/12/10 01:52:00;;;;;;;3.37;3.27;;;;;;;1.63;100.00;101078.38;6342375;28;20300;-75
2021/12/10 01:55:08;;;;;;;3.50;3.30;;;;;;;1.65;100.00;101076.38;6362822;28;20189;-75
2021/12/10 01:58:19;;;;;;;4.43;3.50;;;;;;;1.66;100.00;101082.59;6362830;28;20220;-75
2021/12/10 02:01:31;;;;;;;3.60;3.50;;;;;;;1.55;100.00;101070.22;6362501;28;20201;-75
2021/12/10 02:04:38;;;;;;;3.50;3.40;;;;;;;1.56;100.00;101063.00;6362493;28;20190;-75
2021/12/10 02:07:44;;;;;;;3.13;3.03;;;;;;;1.56;100.00;101060.31;6361315;28;20478;-75
2021/12/10 02:10:49;;;;;;;2.93;2.77;;;;;;;1.62;100.00;101059.69;6361237;28;20370;-75
2021/12/10 02:13:54;;;;;;;3.30;3.20;;;;;;;1.60;100.00;101064.38;6362191;28;20232;-75
2021/12/10 02:16:59;;;;;;;3.53;3.10;;;;;;;1.51;100.00;101073.38;6362454;28;20209;-75
2021/12/10 02:20:10;;;;;;;2.90;2.80;;;;;;;1.59;100.00;101060.84;6362399;28;20231;-75
2021/12/10 02:23:15;;;;;;;2.93;2.73;;;;;;;1.61;100.00;101066.06;6360974;28;20411;-75
2021/12/10 02:26:20;;;;;;;2.67;2.63;;;;;;;1.56;100.00;101054.94;6360998;28;20463;-75
2021/12/10 02:29:27;;;;;;;2.50;2.50;;;;;;;1.62;100.00;101040.84;6360948;28;20350;-75
2021/12/10 02:32:31;;;;;;;4.53;2.77;;;;;;;1.66;100.00;101040.41;6362170;28;20228;-75
2021/12/10 02:35:36;;;;;;;2.93;2.73;;;;;;;1.59;100.00;101033.13;6367077;28;20186;-76
2021/12/10 02:38:45;;;;;;;2.90;2.73;;;;;;;1.61;100.00;101031.13;6365734;28;20475;-74
2021/12/10 02:41:50;;;;;;;2.70;2.60;;;;;;;1.51;100.00;101035.72;6366918;28;20186;-75
2021/12/10 02:44:55;;;;;;;2.67;2.57;;;;;;;1.51;100.00;101030.34;6365501;28;20201;-75
2021/12/10 02:47:59;;;;;;;2.67;2.57;;;;;;;1.42;100.00;101025.88;6365506;28;20185;-75
2021/12/10 02:51:07;;;;;;;3.43;2.30;;;;;;;1.44;100.00;101023.91;6360880;28;20199;-75
2021/12/10 02:54:16;;;;;;;2.03;2.00;;;;;;;1.47;100.00;101023.56;6339328;28;20238;-75
2021/12/10 02:57:21;;;;;;;2.30;2.30;;;;;;;1.37;100.00;101018.28;6340680;28;20186;-75
2021/12/10 03:00:29;;;;;;;2.80;2.60;;;;;;;1.33;100.00;101032.19;6341231;28;20185;-75
2021/12/10 03:03:33;;;;;;;2.37;2.20;;;;;;;1.43;100.00;101022.22;6340706;28;20274;-75
2021/12/10 03:06:43;;;;;;;2.47;2.40;;;;;;;1.33;100.00;101016.06;6340204;28;20184;-75
2021/12/10 03:09:53;;;;;;;2.77;2.57;;;;;;;1.48;100.00;101025.28;6339557;28;20192;-75
2021/12/10 03:12:57;;;;;;;5.00;2.40;;;;;;;1.52;100.00;101026.66;6339564;28;20274;-75
2021/12/10 03:16:02;;;;;;;2.23;2.23;;;;;;;1.60;100.00;101013.28;6339446;28;20183;-75
2021/12/10 03:19:07;;;;;;;2.60;2.23;;;;;;;1.51;100.00;101003.47;6340609;28;20186;-75
2021/12/10 03:22:12;;;;;;;2.87;2.70;;;;;;;1.46;100.00;101005.78;6339237;28;20409;-75
2021/12/10 03:25:19;;;;;;;2.37;2.37;;;;;;;1.54;100.00;101013.91;6339168;28;20186;-75
2021/12/10 03:28:23;;;;;;;2.00;1.90;;;;;;;1.55;100.00;101004.84;6340106;28;20228;-75
2021/12/10 03:31:29;;;;;;;2.67;2.47;;;;;;;1.61;100.00;101014.97;6340391;28;20244;-75
2021/12/10 03:34:36;;;;;;;2.63;2.60;;;;;;;1.56;100.00;101001.16;6339992;28;20191;-75
2021/12/10 03:37:42;;;;;;;2.97;2.73;;;;;;;1.64;100.00;100998.53;6340346;28;20186;-75
2021/12/10 03:40:49;;;;;;;2.63;2.60;;;;;;;1.59;100.00;100990.09;6339788;28;20220;-75
2021/12/10 03:43:54;;;;;;;2.47;2.37;;;;;;;1.61;100.00;100982.72;6339536;28;20216;-75
2021/12/10 03:47:00;;;;;;;2.60;2.50;;;;;;;1.64;100.00;100971.63;6338452;28;20254;-75
2021/12/10 03:50:06;;;;;;;2.77;2.67;;;;;;;1.65;100.00;100978.69;6338905;28;20190;-75
2021/12/10 03:53:14;;;;;;;2.33;2.30;;;;;;;1.68;100.00;100973.00;6355205;28;20265;-75
2021/12/10 03:56:24;;;;;;;2.67;2.47;;;;;;;1.77;100.00;100972.09;6363860;28;20369;-75
2021/12/10 03:59:30;;;;;;;2.70;2.60;;;;;;;1.74;100.00;100961.63;6364825;28;20182;-75
2021/12/10 04:02:34;;;;;;;3.10;2.90;;;;;;;1.67;100.00;100972.16;6364859;28;20293;-75
2021/12/10 04:05:40;;;;;;;3.13;2.97;;;;;;;1.73;100.00;100954.53;6364315;28;20217;-75
2021/12/10 04:08:45;;;;;;;3.10;2.90;;;;;;;1.65;100.00;100951.78;6364892;28;20195;-75
2021/12/10 04:11:51;;;;;;;3.10;2.90;;;;;;;1.76;100.00;100954.25;6364849;28;20190;-75
2021/12/10 04:14:55;;;;;;;3.50;3.20;;;;;;;1.75;100.00;100957.91;6364803;28;20252;-75
2021/12/10 04:18:00;;;;;;;3.47;3.27;;;;;;;1.77;100.00;100961.31;6363317;28;20244;-76
2021/12/10 04:21:05;;;;;;;5.67;3.13;;;;;;;1.71;100.00;100945.81;6364228;28;20205;-75
2021/12/10 04:24:15;;;;;;;5.03;3.93;;;;;;;1.74;100.00;100956.25;6363076;28;20531;-75
2021/12/10 04:27:21;;;;;;;5.93;3.40;;;;;;;1.78;100.00;100968.38;6363043;28;20191;-75
2021/12/10 04:30:26;;;;;;;3.80;3.40;;;;;;;1.81;100.00;100957.31;6363019;28;20186;-76
2021/12/10 04:33:30;;;;;;;6.60;3.57;;;;;;;1.83;100.00;100939.16;6362850;28;20189;-75
2021/12/10 04:36:36;;;;;;;3.47;3.33;;;;;;;1.84;100.00;100946.22;6364091;28;20227;-75
2021/12/10 04:39:45;;;;;;;4.27;3.63;;;;;;;1.98;100.00;100942.13;6363702;28;20293;-75
2021/12/10 04:42:52;;;;;;;3.90;3.47;;;;;;;1.81;100.00;100941.16;6363795;28;20218;-75
2021/12/10 04:45:59;;;;;;;5.97;3.93;;;;;;;1.83;100.00;100940.00;6362416;28;20379;-75
2021/12/10 04:49:08;;;;;;;5.30;4.23;;;;;;;1.73;100.00;100943.78;6363866;28;20189;-75
2021/12/10 04:52:13;;;;;;;4.10;3.80;;;;;;;1.75;100.00;100936.41;6362670;28;20411;-75
2021/12/10 04:55:20;;;;;;;4.20;3.80;;;;;;;1.79;100.00;100937.78;6363448;28;20208;-75
2021/12/10 04:58:25;;;;;;;3.93;3.73;;;;;;;1.83;100.00;100939.16;6362614;28;20183;-75
2021/12/10 05:01:30;;;;;;;5.17;4.27;;;;;;;1.93;100.00;100949.81;6363497;28;20250;-74
2021/12/10 05:04:36;;;;;;;7.50;4.50;;;;;;;1.83;100.00;100933.78;6363541;28;20238;-75
2021/12/10 05:07:41;;;;;;;5.60;4.20;;;;;;;1.90;100.00;100937.50;6363596;28;20218;-75
2021/12/10 05:10:49;;;;;;;4.63;4.03;;;;;;;1.88;100.00;100936.81;6362073;28;20269;-75
2021/12/10 05:13:55;;;;;;;6.50;3.90;;;;;;;1.92;100.00;100940.91;6361954;28;20187;-75
2021/12/10 05:17:03;;;;;;;4.67;4.10;;;;;;;1.96;100.00;100928.81;6362793;28;20223;-75
2021/12/10 05:20:16;;;;;;;6.40;4.13;;;;;;;1.97;100.00;100935.88;6362867;28;20184;-75
2021/12/10 05:23:21;;;;;;;4.20;3.90;;;;;;;1.88;100.00;100926.91;6363112;28;20183;-74
2021/12/10 05:26:27;;;;;;;2.90;2.80;;;;;;;1.97;100.00;100929.66;6363216;28;20206;-75
2021/12/10 05:29:32;;;;;;;4.40;3.67;;;;;;;2.00;100.00;100916.75;6362294;28;20251;-74
2021/12/10 05:32:37;;;;;;;5.07;3.80;;;;;;;1.99;100.00;100915.03;6362667;28;20193;-75
2021/12/10 05:35:41;;;;;;;3.80;3.60;;;;;;;1.96;100.00;100915.34;6362561;28;20253;-75
2021/12/10 05:38:46;;;;;;;3.40;3.20;;;;;;;1.94;100.00;100920.06;6361880;28;20183;-75
2021/12/10 05:41:51;;;;;;;3.63;3.33;;;;;;;1.91;100.00;100920.38;6362528;28;20190;-75
2021/12/10 05:44:56;;;;;;;2.97;2.87;;;;;;;1.91;100.00;100906.91;6361508;28;20405;-75
2021/12/10 05:48:01;;;;;;;5.00;3.07;;;;;;;1.92;100.00;100905.94;6362390;28;20249;-75
2021/12/10 05:51:05;;;;;;;6.33;3.30;;;;;;;1.96;100.00;100896.53;6355919;28;20206;-75
2021/12/10 05:54:11;;;;;;;4.33;2.87;;;;;;;1.94;100.00;100906.59;6335793;28;20432;-75
2021/12/10 05:57:15;;;;;;;3.10;2.90;;;;;;;1.94;100.00;100886.91;6337393;28;20219;-75
2021/12/10 06:00:26;;;;;;;3.30;2.90;;;;;;;1.83;100.00;100902.34;6337304;28;20185;-75
2021/12/10 06:03:31;;;;;;;3.27;3.00;;;;;;;1.94;100.00;100897.69;6337089;28;20183;-75
2021/12/10 06:06:36;;;;;;;2.77;2.67;;;;;;;1.91;100.00;100893.47;6336362;28;20214;-75
2021/12/10 06:09:40;;;;;;;3.53;3.27;;;;;;;2.01;100.00;100883.44;6339715;28;20495;-75
2021/12/10 06:12:46;;;;;;;3.37;3.20;;;;;;;2.02;100.00;100886.97;6341761;28;20192;-75
2021/12/10 06:15:52;;;;;;;3.43;3.20;;;;;;;1.97;100.00;100884.75;6341462;28;20482;-75
2021/12/10 06:18:57;;;;;;;3.30;3.20;;;;;;;2.00;100.00;100883.59;6342545;28;20192;-74
2021/12/10 06:22:02;;;;;;;3.97;3.70;;;;;;;1.99;100.00;100889.97;6341795;28;20269;-75
2021/12/10 06:25:08;;;;;;;4.30;3.90;;;;;;;2.02;100.00;100884.28;6342256;28;20226;-75
2021/12/10 06:28:13;;;;;;;4.83;4.17;;;;;;;2.09;100.00;100870.00;6342006;28;20194;-75
2021/12/10 06:31:22;;;;;;;5.80;4.03;;;;;;;1.98;100.00;100878.34;6340901;28;20478;-75
2021/12/10 06:34:26;;;;;;;6.50;4.00;;;;;;;1.92;100.00;100868.25;6341697;28;20270;-74
2021/12/10 06:37:30;;;;;;;5.47;4.70;;;;;;;1.83;100.00;100875.44;6341694;28;20190;-74
2021/12/10 06:40:36;;;;;;;6.20;4.40;;;;;;;1.81;100.00;100872.06;6340137;28;20406;-74
2021/12/10 06:43:42;;;;;;;5.13;4.30;;;;;;;1.92;100.00;100884.41;6341064;28;20183;-75
2021/12/10 06:46:49;;;;;;;9.17;4.17;;;;;;;2.00;100.00;100879.06;6341409;28;20207;-75
2021/12/10 06:49:53;;;;;;;5.57;4.33;;;;;;;2.04;100.00;100885.81;6340235;28;20187;-74
2021/12/10 06:52:58;;;;;;;5.50;4.47;;;;;;;1.95;100.00;100883.25;6353300;28;20536;-75
2021/12/10 06:56:04;;;;;;;7.97;4.67;;;;;;;1.95;100.00;100884.09;6364903;28;20211;-75
2021/12/10 06:59:10;;;;;;;5.43;4.37;;;;;;;1.98;100.00;100883.75;6366290;28;20184;-75
2021/12/10 07:02:16;;;;;;;6.47;5.00;;;;;;;2.04;100.00;100877.72;6366458;28;20182;-74
2021/12/10 07:05:21;;;;;;;4.03;3.77;;;;;;;2.12;100.00;100875.06;6364996;28;20210;-75
2021/12/10 07:08:27;;;;;;;5.70;4.40;;;;;;;2.10;100.00;100882.47;6365899;28;20186;-75
2021/12/10 07:11:32;;;;;;;4.50;4.10;;;;;;;2.15;100.00;100890.91;6365893;28;20189;-74
2021/12/10 07:14:36;;;;;;;5.37;4.60;;;;;;;2.17;100.00;100888.91;6364761;28;20582;-74
2021/12/10 07:17:45;;;;;;;4.50;4.20;;;;;;;2.20;100.00;100883.19;6365241;28;20185;-75
2021/12/10 07:20:52;;;;;;;4.47;3.90;;;;;;;2.06;100.00;100886.47;6365253;28;20189;-75
2021/12/10 07:23:57;;;;;;;4.07;3.77;;;;;;;2.08;100.00;100889.84;6365795;28;20214;-75
2021/12/10 07:27:01;;;;;;;3.70;3.37;;;;;;;2.10;100.00;100887.84;6364342;28;20218;-74
2021/12/10 07:30:08;;;;;;;4.23;3.83;;;;;;;2.07;100.00;100866.66;6365155;28;20245;-74
2021/12/10 07:33:18;;;;;;;4.07;3.40;;;;;;;2.17;100.00;100878.13;6366096;28;20266;-75
2021/12/10 07:36:22;;;;;;;4.83;3.53;;;;;;;2.20;100.00;100872.44;6365760;28;20186;-74
2021/12/10 07:39:27;;;;;;;3.13;2.83;;;;;;;2.06;100.00;100870.31;6364270;28;20470;-75
2021/12/10 07:42:32;;;;;;;3.03;2.87;;;;;;;2.12;100.00;100875.06;6365403;28;20215;-74
2021/12/10 07:45:38;;;;;;;3.00;2.90;;;;;;;2.05;100.00;100873.19;6363777;28;20509;-74
2021/12/10 07:48:45;;;;;;;4.47;2.67;;;;;;;1.99;100.00;100869.28;6363613;28;20215;-74
2021/12/10 07:51:50;;;;;;;3.37;2.90;;;;;;;2.06;100.00;100875.72;6351781;28;20287;-75
2021/12/10 07:54:55;;;;;;;2.87;2.77;;;;;;;2.02;100.00;100882.44;6340144;28;20184;-75
2021/12/10 07:58:01;;;;;;;2.93;2.73;;;;;;;2.03;100.00;100880.59;6339770;28;20238;-75
2021/12/10 08:01:09;;;;;;;2.77;2.70;;;;;;;1.95;100.00;100881.41;6338219;28;20474;-75
2021/12/10 08:04:15;;;;;;;2.87;2.77;;;;;;;2.04;100.00;100877.72;6338273;28;20427;-75
2021/12/10 08:07:19;;;;;;;4.60;2.80;;;;;;;2.00;100.00;100891.66;6339479;28;20211;-75
2021/12/10 08:10:24;;;;;;;3.07;2.83;;;;;;;1.98;100.00;100874.84;6337972;28;20527;-75
2021/12/10 08:13:29;;;;;;;5.20;2.80;;;;;;;1.91;100.00;100880.00;6339061;28;20265;-75
2021/12/10 08:16:33;;;;;;;3.77;3.07;;;;;;;1.96;100.00;100880.38;6337974;28;20481;-75
2021/12/10 08:19:39;;;;;;;3.13;2.83;;;;;;;1.98;100.00;100883.75;6338876;28;20251;-75
2021/12/10 08:22:43;;;;;;;4.10;2.80;;;;;;;1.99;100.00;100885.44;6338267;28;20256;-75
2021/12/10 08:25:49;;;;;;;3.30;3.00;;;;;;;2.03;100.00;100881.41;6337621;28;20273;-75
2021/12/10 08:28:54;;;;;;;2.90;2.70;;;;;;;1.83;100.00;100891.56;6338619;28;20190;-74
2021/12/10 08:31:58;;;;;;;3.17;2.97;;;;;;;1.84;100.00;100885.19;6336931;28;20364;-75
2021/12/10 08:35:07;;;;;;;4.83;2.73;;;;;;;1.99;100.00;100876.50;6338910;28;20187;-75
2021/12/10 08:38:15;;;;;;;2.83;2.63;;;;;;;1.88;100.00;100877.63;6338856;28;20194;-74
2021/12/10 08:41:24;;;;;;;3.13;2.83;;;;;;;1.92;100.00;100887.09;6338777;28;20190;-74
2021/12/10 08:44:29;;;;;;;3.40;3.20;;;;;;;1.81;100.00;100876.59;6338688;28;20196;-75
2021/12/10 08:47:33;;;;;;;3.83;3.40;;;;;;;2.04;100.00;100877.72;6338546;28;20241;-74
2021/12/10 08:50:42;;;;;;;3.13;2.93;;;;;;;2.05;100.00;100874.03;6336988;28;20277;-75
2021/12/10 08:53:47;;;;;;;4.67;3.47;;;;;;;2.08;100.00;100884.47;6358644;28;20233;-75
2021/12/10 08:56:52;;;;;;;3.47;3.27;;;;;;;2.06;100.00;100878.41;6362369;28;20222;-75
2021/12/10 08:59:56;;;;;;;3.77;3.47;;;;;;;2.09;100.00;100874.53;6363413;28;20184;-75
2021/12/10 09:03:01;;;;;;;3.20;2.93;;;;;;;2.01;100.00;100872.66;6363237;28;20182;-75
2021/12/10 09:06:09;;;;;;;3.77;3.50;;;;;;;2.03;100.00;100867.94;6362804;28;20213;-74
2021/12/10 09:09:14;;;;;;;3.27;3.10;;;;;;;1.89;100.00;100871.25;6363492;28;20251;-74
2021/12/10 09:12:23;;;;;;;3.43;2.83;;;;;;;2.03;100.00;100876.03;6362935;28;20260;-74
2021/12/10 09:15:28;;;;;;;3.47;2.97;;;;;;;2.12;100.00;100875.06;6361820;28;20329;-75
2021/12/10 09:18:33;;;;;;;3.50;3.20;;;;;;;2.16;100.00;100871.03;6361761;28;20192;-74
2021/12/10 09:21:42;;;;;;;3.40;3.10;;;;;;;2.05;100.00;100862.44;6363099;28;20182;-74
2021/12/10 09:24:47;;;;;;;5.47;3.43;;;;;;;2.06;100.00;100862.25;6361809;28;20316;-75
2021/12/10 09:27:52;;;;;;;3.13;2.93;;;;;;;2.10;100.00;100866.31;6362954;28;20251;-75
2021/12/10 09:30:59;;;;;;;3.30;3.00;;;;;;;1.96;100.00;100864.22;6362625;28;20192;-74
2021/12/10 09:34:04;;;;;;;2.90;2.70;;;;;;;1.88;100.00;100862.34;6361605;28;20195;-74
2021/12/10 09:37:12;;;;;;;3.10;2.90;;;;;;;1.92;100.00;100857.50;6361724;28;20385;-74
2021/12/10 09:40:19;;;;;;;4.50;3.23;;;;;;;2.02;100.00;100852.84;6362288;28;20259;-74
2021/12/10 09:43:24;;;;;;;4.10;2.97;;;;;;;1.98;100.00;100851.44;6362539;28;20182;-74
2021/12/10 09:46:28;;;;;;;3.37;3.17;;;;;;;2.00;100.00;100844.09;6361821;28;20525;-74
2021/12/10 09:49:33;;;;;;;3.27;3.07;;;;;;;2.17;100.00;100858.44;6362418;28;20187;-74
2021/12/10 09:52:40;;;;;;;2.77;2.67;;;;;;;2.20;100.00;100850.88;6361378;28;20226;-74
2021/12/10 09:55:47;;;;;;;3.50;3.20;;;;;;;2.27;100.00;100846.53;6362755;28;20259;-74
2021/12/10 09:58:53;;;;;;;4.27;3.10;;;;;;;2.23;100.00;100855.09;6361264;28;20269;-73
2021/12/10 10:01:59;;;;;;;2.90;2.80;;;;;;;2.30;100.00;100858.81;6361414;28;20557;-73
2021/12/10 10:05:06;;;;;;;4.20;3.40;;;;;;;2.24;100.00;100863.00;6362215;28;20205;-73
2021/12/10 10:08:20;;;;;;;3.20;3.00;;;;;;;2.31;100.00;100857.81;6361451;28;20212;-74
2021/12/10 10:11:28;;;;;;;2.57;2.43;;;;;;;2.12;100.00;100853.53;6362459;28;20261;-73
2021/12/10 10:14:33;;;;;;;5.27;2.80;;;;;;;2.15;100.00;100847.00;6360992;28;20257;-74
2021/12/10 10:17:39;;;;;;;2.87;2.67;;;;;;;2.21;100.00;100849.88;6361243;28;20192;-75
2021/12/10 10:20:46;;;;;;;6.27;2.43;;;;;;;2.27;100.00;100846.53;6362486;28;20227;-74
2021/12/10 10:23:53;;;;;;;2.23;2.20;;;;;;;2.39;100.00;100847.91;6362071;28;20251;-74
2021/12/10 10:27:02;;;;;;;5.03;2.60;;;;;;;2.46;100.00;100857.03;6361113;28;20207;-74
2021/12/10 10:30:11;;;;;;;5.37;2.77;;;;;;;2.49;100.00;100850.47;6361622;28;20184;-75
2021/12/10 10:33:16;;;;;;;3.03;2.70;;;;;;;2.54;100.00;100854.34;6362083;28;20183;-75
2021/12/10 10:36:23;;;;;;;2.67;2.57;;;;;;;2.57;100.00;100847.78;6361945;28;20190;-73
2021/12/10 10:39:33;;;;;;;2.67;2.57;;;;;;;2.52;100.00;100844.75;6362086;28;20253;-74
2021/12/10 10:42:37;;;;;;;2.60;2.50;;;;;;;2.54;100.00;100838.19;6360776;28;20378;-76
2021/12/10 10:45:44;;;;;;;2.80;2.33;;;;;;;2.54;100.00;100840.88;6361771;28;20215;-73
2021/12/10 10:48:49;;;;;;;2.30;2.20;;;;;;;2.66;100.00;100837.88;6361397;28;20213;-74
2021/12/10 10:51:55;;;;;;;4.47;2.03;;;;;;;2.86;100.00;100831.16;6362118;28;20297;-74
2021/12/10 10:55:16;;;;;;;6.30;2.50;;;;;;;2.72;100.00;100835.38;6364562;28;20186;-74
2021/12/10 10:58:25;;;;;;;2.67;2.57;;;;;;;2.45;100.00;100836.50;6365209;28;20403;-74
2021/12/10 11:01:35;;;;;;;2.60;2.50;;;;;;;2.47;100.00;100828.22;6364968;28;20548;-74
2021/12/10 11:05:10;;;;;;;2.73;2.47;;;;;;;2.44;100.00;100818.63;6365873;28;20230;-74
2021/12/10 11:08:27;;;;;;;2.00;2.00;;;;;;;2.48;100.00;100822.69;6365789;28;20241;-73
2021/12/10 11:11:35;;;;;;;5.00;2.40;;;;;;;2.38;100.00;100827.38;6366184;28;20190;-73
2021/12/10 11:14:43;;;;;;;1.97;1.97;;;;;;;2.42;100.00;100812.56;6366146;28;20182;-73
2021/12/10 11:17:49;;;;;;;2.77;2.27;;;;;;;2.47;100.00;100815.63;6365950;28;20186;-73
2021/12/10 11:20:55;;;;;;;3.43;2.20;;;;;;;2.47;100.00;100804.84;6364893;28;20527;-73
2021/12/10 11:24:12;;;;;;;2.23;2.20;;;;;;;2.47;100.00;100794.06;6365885;28;20182;-74
2021/12/10 11:27:27;;;;;;;2.73;2.07;;;;;;;2.49;100.00;100802.81;6365772;28;20238;-74
2021/12/10 11:30:33;;;;;;;2.33;2.13;;;;;;;2.51;100.00;100800.84;6365816;28;20216;-74
2021/12/10 11:33:42;;;;;;;2.33;2.23;;;;;;;2.46;100.00;100803.19;6364424;28;20475;-73
2021/12/10 11:36:50;;;;;;;2.20;2.10;;;;;;;2.36;100.00;100796.25;6365172;28;20186;-74
2021/12/10 11:39:54;;;;;;;2.77;2.57;;;;;;;2.43;100.00;100799.97;6364074;28;20480;-74
2021/12/10 11:43:05;;;;;;;2.30;2.13;;;;;;;2.48;100.00;100795.78;6365578;28;20247;-73
2021/12/10 11:46:30;;;;;;;4.20;2.57;;;;;;;2.53;100.00;100787.19;6364453;28;20184;-73
2021/12/10 11:49:38;;;;;;;2.33;2.20;;;;;;;2.53;100.00;100782.66;6365313;28;20217;-73
2021/12/10 11:52:42;;;;;;;2.40;2.30;;;;;;;2.53;100.00;100788.03;6364896;28;20302;-74
2021/12/10 11:55:59;;;;;;;2.77;2.40;;;;;;;2.59;100.00;100785.69;6364971;28;20295;-74
2021/12/10 11:59:12;;;;;;;4.43;2.50;;;;;;;2.59;100.00;100780.28;6364324;28;20186;-74
2021/12/10 12:02:20;;;;;;;2.80;2.30;;;;;;;2.78;100.00;100785.34;6365045;28;20206;-74
2021/12/10 12:05:29;;;;;;;2.80;2.60;;;;;;;2.79;100.00;100781.66;6363763;28;20188;-74
2021/12/10 12:08:37;;;;;;;2.50;2.40;;;;;;;2.79;100.00;100781.66;6364550;28;20244;-74
2021/12/10 12:12:05;;;;;;;2.70;2.53;;;;;;;2.70;100.00;100783.50;6363499;28;20217;-73
2021/12/10 12:15:18;;;;;;;2.47;2.37;;;;;;;2.74;100.00;100784.00;6364895;28;20182;-74
2021/12/10 12:18:26;;;;;;;2.93;2.53;;;;;;;2.75;100.00;100774.94;6363393;28;20526;-73
2021/12/10 12:21:55;;;;;;;2.80;2.60;;;;;;;2.80;100.00;100783.34;6363093;28;20476;-74
2021/12/10 12:25:08;;;;;;;3.37;3.17;;;;;;;2.76;100.00;100776.59;6363130;28;20270;-73
2021/12/10 12:28:17;;;;;;;5.53;2.93;;;;;;;2.66;100.00;100771.38;6364048;28;20239;-74
2021/12/10 12:31:46;;;;;;;4.43;3.03;;;;;;;2.85;100.00;100767.50;6364315;28;20251;-73
2021/12/10 12:34:51;;;;;;;4.00;3.50;;;;;;;2.92;100.00;100765.81;6363943;28;20204;-74
2021/12/10 12:38:07;;;;;;;4.17;3.30;;;;;;;2.90;100.00;100762.47;6363390;28;20188;-73
2021/12/10 12:41:35;;;;;;;6.13;3.93;;;;;;;2.82;100.00;100759.75;6363626;28;20223;-73
2021/12/10 12:44:42;;;;;;;4.73;3.60;;;;;;;2.84;100.00;100763.13;6363552;28;20240;-73
2021/12/10 12:48:11;;;;;;;4.20;3.67;;;;;;;2.73;100.00;100760.75;6363411;28;20210;-74
2021/12/10 12:51:23;;;;;;;5.40;3.93;;;;;;;2.79;100.00;100758.25;6363293;28;20207;-74
2021/12/10 12:54:27;;;;;;;3.73;3.33;;;;;;;2.69;100.00;100754.88;6362305;28;20454;-74
2021/12/10 12:57:37;;;;;;;5.77;3.47;;;;;;;2.75;100.00;100753.38;6363695;28;20184;-73
2021/12/10 13:01:09;;;;;;;2.77;2.67;;;;;;;2.72;100.00;100742.94;6363279;28;20254;-74
2021/12/10 13:04:19;;;;;;;2.60;2.50;;;;;;;2.69;100.00;100743.25;6363477;28;20258;-74
2021/12/10 13:07:43;;;;;;;2.90;2.80;;;;;;;2.79;100.00;100744.78;6363094;28;20188;-73
2021/12/10 13:11:02;;;;;;;2.80;2.70;;;;;;;2.64;100.00;100740.22;6362853;28;20273;-74
2021/12/10 13:14:14;;;;;;;2.53;2.43;;;;;;;2.60;100.00;100742.41;6361882;28;20276;-73
2021/12/10 13:17:21;;;;;;;3.20;3.00;;;;;;;2.67;100.00;100742.59;6361633;28;20371;-73
2021/12/10 13:20:32;;;;;;;2.90;2.70;;;;;;;2.70;100.00;100742.22;6361681;28;20336;-73
2021/12/10 13:23:38;;;;;;;3.00;2.70;;;;;;;2.69;100.00;100727.09;6362504;28;20244;-74
2021/12/10 13:26:43;;;;;;;3.40;2.10;;;;;;;2.63;100.00;100733.16;6361758;28;20262;-73
2021/12/10 13:29:47;;;;;;;2.10;2.00;;;;;;;2.79;100.00;100743.94;6362704;28;20215;-73
2021/12/10 13:32:54;;;;;;;1.90;1.90;;;;;;;2.61;100.00;100745.94;6361709;28;20521;-73
2021/12/10 13:36:03;;;;;;;2.03;2.03;;;;;;;2.69;100.00;100735.19;6362942;28;20213;-73
2021/12/10 13:39:09;;;;;;;1.80;1.80;;;;;;;16.08;98.89;100675.25;6362627;28;20188;-73
2021/12/10 13:42:16;;;;;;;2.10;1.90;;;;;;;13.20;nan;100705.91;6361559;28;20377;-74
2021/12/10 13:45:22;;;;;;;1.50;1.50;;;;;;;11.96;nan;100712.16;6361753;28;20265;-73
2021/12/10 13:48:39;;;;;;;2.63;1.50;;;;;;;12.20;nan;100719.38;6361216;28;20265;-77
2021/12/10 13:51:49;;;;;;;1.60;1.50;;;;;;;11.94;nan;100719.72;6350078;28;20309;-77
2021/12/10 13:54:54;;;;;;;1.57;1.57;;;;;;;11.55;nan;100720.16;6335922;28;20262;-77
2021/12/10 13:58:15;;;;;;;2.67;1.80;;;;;;;11.43;nan;100719.22;6335937;28;20265;-77
2021/12/10 14:01:23;;;;;;;1.60;1.60;;;;;;;12.57;nan;100712.78;6335994;28;20262;-77
2021/12/10 14:04:32;;;;;;;2.10;2.00;;;;;;;11.96;nan;100712.16;6335735;28;20258;-77
2021/12/10 14:07:50;;;;;;;2.37;2.27;;;;;;;12.90;nan;100725.94;6335846;28;20259;-77
2021/12/10 14:11:02;;;;;;;2.53;2.40;;;;;;;13.08;nan;100717.69;6336041;28;20285;-78
2021/12/10 14:14:08;;;;;;;2.90;2.57;;;;;;;13.54;nan;100725.09;6336095;28;20300;-76
2021/12/10 14:17:15;;;;;;;2.47;2.27;;;;;;;12.36;nan;100729.69;6335460;28;20264;-76
2021/12/10 14:20:43;;;;;;;2.60;2.50;;;;;;;12.57;nan;100731.94;6335528;28;20264;-76
2021/12/10 14:24:11;;;;;;;3.17;2.10;;;;;;;12.49;nan;100715.84;6335686;28;20303;-75
2021/12/10 14:27:35;;;;;;;2.27;2.10;;;;;;;12.82;nan;100730.94;6335735;28;20266;-75
2021/12/10 14:31:00;;;;;;;2.20;2.10;;;;;;;13.16;nan;100735.69;6339627;28;20286;-77
2021/12/10 14:34:08;;;;;;;5.30;2.67;;;;;;;13.39;nan;100732.97;6340601;28;20474;-77
2021/12/10 14:37:13;;;;;;;2.80;2.33;;;;;;;12.86;nan;100726.66;6340567;28;20262;-75
2021/12/10 14:40:48;;;;;;;2.40;2.10;;;;;;;14.58;nan;100713.06;6340712;28;20263;-75
2021/12/10 14:43:56;;;;;;;2.33;2.23;;;;;;;15.12;nan;100721.69;6340193;28;20258;-75
2021/12/10 14:47:03;;;;;;;2.63;2.53;;;;;;;15.04;nan;100718.28;6340453;28;20584;-75